Time;durP1;ratioP1;P1;durP2;ratioP2;P2;SDS_P1;SDS_P2;PMS_P1;PMS_P2;Temp;Humidity;BMP_temperature;BMP_pressure;BME280_temperature;BME280_humidity;BME280_pressure;Samples;Min_cycle;Max_cycle;Signal;HPM_P1;HPM_P2
2023/10/18 00:06:55;;;;;;;10.25;7.88;;;;;;;21.52;54.26;100690.81;39939255;29;20046;-70
2023/10/18 00:26:56;;;;;;;12.55;7.63;;;;;;;21.49;54.12;100695.47;39931069;29;20045;-71
2023/10/18 00:46:57;;;;;;;10.68;8.18;;;;;;;21.35;53.77;100678.91;39925121;29;20056;-73
2023/10/18 01:06:57;;;;;;;11.13;7.22;;;;;;;21.23;53.77;100627.97;39925215;29;20500;-72
2023/10/18 01:26:58;;;;;;;10.45;7.05;;;;;;;21.35;53.84;100643.78;39943182;29;20050;-73
2023/10/18 01:47:06;;;;;;;10.27;7.50;;;;;;;21.31;53.74;100645.00;39933839;29;20054;-71
2023/10/18 02:07:07;;;;;;;8.70;7.00;;;;;;;21.26;53.38;100637.41;39922231;29;20054;-70
2023/10/18 02:27:09;;;;;;;9.85;6.80;;;;;;;21.23;53.52;100645.56;39919814;29;20076;-72
2023/10/18 02:47:22;;;;;;;8.43;6.90;;;;;;;21.21;53.35;100650.09;39918452;29;20095;-74
2023/10/18 03:07:22;;;;;;;8.45;6.82;;;;;;;21.17;53.18;100646.03;39941728;29;20046;-73
2023/10/18 03:27:25;;;;;;;8.70;6.25;;;;;;;20.94;53.56;100606.41;39938535;29;20062;-72
2023/10/18 03:47:28;;;;;;;8.15;6.65;;;;;;;21.04;53.15;100620.56;39929180;29;20784;-71
2023/10/18 04:07:29;;;;;;;7.97;6.20;;;;;;;21.01;53.13;100620.81;39911584;29;20054;-72
2023/10/18 04:27:33;;;;;;;10.43;6.70;;;;;;;21.07;53.67;100607.19;39922720;29;20496;-92
2023/10/18 04:47:33;;;;;;;12.50;8.30;;;;;;;21.26;52.97;100633.00;39919859;29;20580;-71
2023/10/18 05:07:47;;;;;;;11.75;8.40;;;;;;;21.37;52.75;100634.84;39935109;29;20103;-73
2023/10/18 05:28:14;;;;;;;13.98;8.40;;;;;;;21.44;52.67;100645.75;39957689;29;20106;-75
2023/10/18 05:48:18;;;;;;;19.85;8.18;;;;;;;21.29;51.37;100658.28;39929718;29;20140;-71
2023/10/18 06:08:22;;;;;;;22.92;9.52;;;;;;;21.14;53.07;100651.50;39936213;29;21383;-73
2023/10/18 06:28:24;;;;;;;22.90;9.48;;;;;;;21.08;53.76;100694.91;39942141;29;20050;-72
2023/10/18 06:48:30;;;;;;;17.90;8.82;;;;;;;21.01;53.24;100670.81;39950401;29;20611;-72
2023/10/18 07:08:34;;;;;;;18.55;8.30;;;;;;;21.15;52.93;100677.72;39961005;29;20053;-72
2023/10/18 07:28:40;;;;;;;13.85;8.15;;;;;;;21.15;53.15;100679.50;39963286;29;20593;-72
2023/10/18 07:48:46;;;;;;;15.43;8.20;;;;;;;21.20;52.50;100666.84;39956113;29;20050;-72
2023/10/18 08:08:46;;;;;;;11.90;7.87;;;;;;;21.24;52.34;100660.41;39940365;29;20108;-73
2023/10/18 08:28:47;;;;;;;16.15;7.93;;;;;;;21.21;51.87;100635.13;39938742;29;20354;-73
2023/10/18 08:48:50;;;;;;;10.80;7.22;;;;;;;21.25;52.06;100615.53;39943527;29;20042;-72
2023/10/18 09:09:09;;;;;;;11.05;6.93;;;;;;;21.25;51.69;100590.97;39951508;29;20053;-72
2023/10/18 09:29:10;;;;;;;10.48;7.15;;;;;;;21.53;51.51;100605.56;39949400;29;20058;-73
2023/10/18 09:49:20;;;;;;;10.93;6.95;;;;;;;21.63;51.07;100574.13;39982830;29;20526;-73
2023/10/18 10:09:29;;;;;;;10.65;6.72;;;;;;;21.86;50.67;100582.03;39967601;29;20054;-72
2023/10/18 10:49:48;;;;;;;11.07;6.50;;;;;;;22.35;47.42;100477.94;39942045;29;20050;-75
2023/10/18 11:09:59;;;;;;;15.93;8.32;;;;;;;22.45;50.02;100475.44;39912621;29;1135537;-76
2023/10/18 11:30:22;;;;;;;9.55;7.25;;;;;;;22.66;50.17;100464.91;39944298;29;20569;-75
2023/10/18 11:50:26;;;;;;;13.82;6.82;;;;;;;22.61;49.76;100430.16;39957031;29;20049;-77
2023/10/18 12:10:34;;;;;;;8.00;4.65;;;;;;;21.06;38.43;100397.50;39962028;29;20508;-75
2023/10/18 12:30:38;;;;;;;7.95;5.05;;;;;;;22.09;39.37;100379.81;39967474;29;20173;-74
2023/10/18 12:50:44;;;;;;;8.43;4.50;;;;;;;;;;39949253;29;20808;-76
2023/10/18 13:31:09;;;;;;;11.35;4.50;;;;;;;21.58;38.19;100228.44;39893134;29;20054;-78
2023/10/18 13:51:13;;;;;;;5.07;4.35;;;;;;;22.02;38.56;100260.84;39904445;29;20046;-75
2023/10/18 14:11:15;;;;;;;7.55;4.30;;;;;;;21.71;36.50;100231.75;39910454;29;20047;-73
2023/10/18 14:31:16;;;;;;;8.27;4.80;;;;;;;21.59;39.99;100204.63;39959899;29;20493;-74
2023/10/18 14:51:21;;;;;;;12.60;4.90;;;;;;;21.55;37.63;100207.59;39972341;29;20054;-72
2023/10/18 15:11:21;;;;;;;7.03;4.03;;;;;;;20.40;34.75;100200.78;39981566;29;20127;-74
2023/10/18 15:31:22;;;;;;;9.07;5.03;;;;;;;21.07;39.32;100120.13;40008120;29;20070;-71
2023/10/18 15:51:23;;;;;;;7.78;5.25;;;;;;;21.61;42.66;100193.13;39950086;29;20587;-73
2023/10/18 16:11:24;;;;;;;12.43;5.72;;;;;;;21.53;43.86;100165.56;39953053;29;20083;-73
2023/10/18 16:31:25;;;;;;;31.08;11.85;;;;;;;21.81;44.34;100180.91;39984825;29;21568;-74
2023/10/18 16:51:28;;;;;;;31.33;13.70;;;;;;;21.81;45.97;100157.19;39976578;29;20057;-79
2023/10/18 17:11:32;;;;;;;27.27;12.50;;;;;;;21.97;48.38;100136.50;40002251;29;20042;-82
2023/10/18 17:31:37;;;;;;;26.73;13.60;;;;;;;21.96;50.39;100094.44;39961411;29;20094;-79
2023/10/18 17:51:37;;;;;;;22.98;11.95;;;;;;;21.57;50.27;100018.66;39956937;29;20515;-77
2023/10/18 18:11:39;;;;;;;21.90;12.50;;;;;;;21.96;50.55;100079.47;39960729;29;20050;-75
2023/10/18 18:31:41;;;;;;;19.48;10.48;;;;;;;22.07;50.30;100100.47;40044299;29;20078;-78
2023/10/18 18:51:43;;;;;;;19.27;10.25;;;;;;;22.13;50.48;100074.53;40000803;29;20137;-78
2023/10/18 19:11:44;;;;;;;18.83;8.90;;;;;;;21.82;51.64;100033.19;39983482;29;20117;-76
2023/10/18 19:31:45;;;;;;;15.55;9.02;;;;;;;21.81;51.71;100042.03;39963086;29;20458;-76
2023/10/18 19:51:46;;;;;;;17.38;8.45;;;;;;;21.89;51.32;100065.97;39938038;29;20054;-74
2023/10/18 20:11:48;;;;;;;13.95;8.23;;;;;;;21.72;51.45;100048.13;39974065;29;20458;-75
2023/10/18 20:31:49;;;;;;;14.15;8.00;;;;;;;21.71;52.50;100051.72;39961139;29;20042;-74
2023/10/18 20:51:51;;;;;;;12.65;7.72;;;;;;;21.54;53.14;100061.84;39962187;29;20069;-74
2023/10/18 21:11:52;;;;;;;10.98;7.30;;;;;;;21.49;53.32;100064.03;39971364;29;21261;-70
2023/10/18 21:31:52;;;;;;;10.75;7.25;;;;;;;21.46;52.68;100035.34;39954105;29;20042;-70
2023/10/18 21:51:53;;;;;;;12.93;7.63;;;;;;;21.36;53.03;99985.22;39945103;29;20046;-71
2023/10/18 22:11:53;;;;;;;10.40;7.05;;;;;;;21.32;53.06;99973.25;39959496;29;20046;-71
2023/10/18 22:31:56;;;;;;;10.98;7.00;;;;;;;21.18;52.87;99948.13;39980350;29;20050;-71
2023/10/18 22:52:13;;;;;;;10.15;6.97;;;;;;;21.24;52.92;99952.84;39977986;29;20581;-70
2023/10/18 23:12:16;;;;;;;10.95;6.90;;;;;;;21.00;52.97;99857.53;39953736;29;20049;-70
2023/10/18 23:52:30;;;;;;;8.30;6.43;;;;;;;21.19;53.22;99888.38;39949074;29;20047;-70
